Portada
METAR-TAF:

METAR-TAF

Aeroports :

Base aèria

Santos, São Paulo, Brasil

latitud: 23-56S, longitud: 046-18W, altitud: 3 m

Observació

L'informe es va fer fa 13 hores i 4 minuts, a les 21:00 UTC
Vent 2 kt amb direcció variable
Temperatura 20°C
Humitat 94%
Pressió 1015 hPa
Visibilitat: 2500 m
boirina

METAR: SBST 152100Z VRB02KT 2500 BR NSC 20/19 Q1015

Hora: 07:04 (10:04 UTC)


TAF: manca

Observacions i pronòstics meteorològics de més de 4000 aeroports (METAR i TAF).

Les estacions disponibles són els punts grocs i vermells al mapa.

Posi el ratolí al punt desitjat per veure el nom de l'estació.

Feu clic per veure les observacions i els pronòstics meteorològics.

Per canviar el mapa: feu clic els botons verds amb una creu de color negre per apropar; al botó verd amb un guió per allunyar la imatge; o en les fletxes verdes per a mapes adjacents.


METAR-TAF: